sensor_id;sensor_type;location;lat;lon;timestamp;P1;durP1;ratioP1;P2;durP2;ratioP2
14484;SDS011;7328;50.812;4.422;2022-07-29T00:00:43;2.27;;;1.37;;
14484;SDS011;7328;50.812;4.422;2022-07-29T00:03:10;3.47;;;1.57;;
14484;SDS011;7328;50.812;4.422;2022-07-29T00:05:38;2.70;;;1.50;;
14484;SDS011;7328;50.812;4.422;2022-07-29T00:08:07;3.93;;;1.60;;
14484;SDS011;7328;50.812;4.422;2022-07-29T00:10:34;1.43;;;1.30;;
14484;SDS011;7328;50.812;4.422;2022-07-29T00:13:00;4.37;;;2.10;;
14484;SDS011;7328;50.812;4.422;2022-07-29T00:15:26;8.23;;;1.57;;
14484;SDS011;7328;50.812;4.422;2022-07-29T00:17:52;1.77;;;1.47;;
14484;SDS011;7328;50.812;4.422;2022-07-29T00:20:18;3.63;;;2.20;;
14484;SDS011;7328;50.812;4.422;2022-07-29T00:22:44;4.17;;;1.57;;
14484;SDS011;7328;50.812;4.422;2022-07-29T00:25:10;1.73;;;1.40;;
14484;SDS011;7328;50.812;4.422;2022-07-29T00:27:40;3.53;;;1.33;;
14484;SDS011;7328;50.812;4.422;2022-07-29T00:30:07;1.83;;;1.70;;
14484;SDS011;7328;50.812;4.422;2022-07-29T00:32:33;2.07;;;1.30;;
14484;SDS011;7328;50.812;4.422;2022-07-29T00:34:59;2.20;;;2.00;;
14484;SDS011;7328;50.812;4.422;2022-07-29T00:37:43;4.00;;;1.37;;
14484;SDS011;7328;50.812;4.422;2022-07-29T00:40:09;3.60;;;1.77;;
14484;SDS011;7328;50.812;4.422;2022-07-29T00:42:43;6.20;;;2.00;;
14484;SDS011;7328;50.812;4.422;2022-07-29T00:45:14;7.27;;;2.30;;
14484;SDS011;7328;50.812;4.422;2022-07-29T00:47:41;6.10;;;2.03;;
14484;SDS011;7328;50.812;4.422;2022-07-29T00:50:08;1.40;;;1.27;;
14484;SDS011;7328;50.812;4.422;2022-07-29T00:52:36;2.27;;;1.50;;
14484;SDS011;7328;50.812;4.422;2022-07-29T00:55:03;2.57;;;1.53;;
14484;SDS011;7328;50.812;4.422;2022-07-29T00:57:31;2.43;;;1.87;;
14484;SDS011;7328;50.812;4.422;2022-07-29T00:59:57;8.67;;;1.97;;
14484;SDS011;7328;50.812;4.422;2022-07-29T01:02:24;4.67;;;2.23;;
14484;SDS011;7328;50.812;4.422;2022-07-29T01:04:50;4.27;;;1.87;;
14484;SDS011;7328;50.812;4.422;2022-07-29T01:07:16;5.10;;;1.77;;
14484;SDS011;7328;50.812;4.422;2022-07-29T01:09:43;2.17;;;1.60;;
14484;SDS011;7328;50.812;4.422;2022-07-29T01:12:11;3.03;;;1.17;;
14484;SDS011;7328;50.812;4.422;2022-07-29T01:14:45;6.00;;;2.57;;
14484;SDS011;7328;50.812;4.422;2022-07-29T01:31:18;3.77;;;2.33;;
14484;SDS011;7328;50.812;4.422;2022-07-29T01:33:49;2.40;;;1.40;;
14484;SDS011;7328;50.812;4.422;2022-07-29T01:36:25;2.87;;;1.57;;
14484;SDS011;7328;50.812;4.422;2022-07-29T01:39:10;5.57;;;1.73;;
14484;SDS011;7328;50.812;4.422;2022-07-29T01:47:26;5.97;;;1.90;;
14484;SDS011;7328;50.812;4.422;2022-07-29T01:49:58;2.03;;;1.67;;
14484;SDS011;7328;50.812;4.422;2022-07-29T01:52:31;1.80;;;1.40;;
14484;SDS011;7328;50.812;4.422;2022-07-29T01:55:04;3.20;;;1.87;;
14484;SDS011;7328;50.812;4.422;2022-07-29T01:57:36;5.00;;;2.07;;
14484;SDS011;7328;50.812;4.422;2022-07-29T02:00:05;3.97;;;1.73;;
14484;SDS011;7328;50.812;4.422;2022-07-29T02:02:32;7.07;;;2.00;;
14484;SDS011;7328;50.812;4.422;2022-07-29T02:05:00;1.93;;;1.83;;
14484;SDS011;7328;50.812;4.422;2022-07-29T02:07:28;4.03;;;1.33;;
14484;SDS011;7328;50.812;4.422;2022-07-29T02:09:57;3.23;;;1.70;;
14484;SDS011;7328;50.812;4.422;2022-07-29T02:12:24;4.10;;;1.67;;
14484;SDS011;7328;50.812;4.422;2022-07-29T02:14:53;1.63;;;1.20;;
14484;SDS011;7328;50.812;4.422;2022-07-29T02:17:25;2.23;;;1.73;;
14484;SDS011;7328;50.812;4.422;2022-07-29T02:19:56;5.13;;;1.80;;
14484;SDS011;7328;50.812;4.422;2022-07-29T02:22:25;2.97;;;1.80;;
14484;SDS011;7328;50.812;4.422;2022-07-29T02:24:54;4.53;;;2.00;;
14484;SDS011;7328;50.812;4.422;2022-07-29T02:27:22;2.80;;;1.30;;
14484;SDS011;7328;50.812;4.422;2022-07-29T02:29:50;4.07;;;1.70;;
14484;SDS011;7328;50.812;4.422;2022-07-29T02:32:18;2.77;;;1.87;;
14484;SDS011;7328;50.812;4.422;2022-07-29T02:34:46;2.83;;;1.53;;
14484;SDS011;7328;50.812;4.422;2022-07-29T02:37:14;3.07;;;1.63;;
14484;SDS011;7328;50.812;4.422;2022-07-29T02:39:43;4.23;;;1.90;;
14484;SDS011;7328;50.812;4.422;2022-07-29T02:42:12;8.77;;;2.37;;
14484;SDS011;7328;50.812;4.422;2022-07-29T02:44:40;3.73;;;1.83;;
14484;SDS011;7328;50.812;4.422;2022-07-29T02:55:10;3.87;;;2.23;;
14484;SDS011;7328;50.812;4.422;2022-07-29T02:58:00;2.47;;;1.40;;
14484;SDS011;7328;50.812;4.422;2022-07-29T03:00:33;2.43;;;1.40;;
14484;SDS011;7328;50.812;4.422;2022-07-29T03:03:03;1.80;;;1.70;;
14484;SDS011;7328;50.812;4.422;2022-07-29T03:05:32;1.30;;;1.30;;
14484;SDS011;7328;50.812;4.422;2022-07-29T03:08:02;4.17;;;1.43;;
14484;SDS011;7328;50.812;4.422;2022-07-29T03:10:31;2.20;;;1.97;;
14484;SDS011;7328;50.812;4.422;2022-07-29T03:12:57;5.07;;;1.90;;
14484;SDS011;7328;50.812;4.422;2022-07-29T03:15:24;2.17;;;1.90;;
14484;SDS011;7328;50.812;4.422;2022-07-29T03:17:50;5.20;;;1.70;;
14484;SDS011;7328;50.812;4.422;2022-07-29T03:20:17;2.10;;;1.40;;
14484;SDS011;7328;50.812;4.422;2022-07-29T03:22:44;3.30;;;2.00;;
14484;SDS011;7328;50.812;4.422;2022-07-29T03:25:12;2.30;;;1.90;;
14484;SDS011;7328;50.812;4.422;2022-07-29T03:27:40;4.13;;;1.60;;
14484;SDS011;7328;50.812;4.422;2022-07-29T03:30:06;2.40;;;2.30;;
14484;SDS011;7328;50.812;4.422;2022-07-29T03:32:33;3.50;;;2.10;;
14484;SDS011;7328;50.812;4.422;2022-07-29T03:34:59;13.23;;;2.37;;
14484;SDS011;7328;50.812;4.422;2022-07-29T03:37:25;4.97;;;1.70;;
14484;SDS011;7328;50.812;4.422;2022-07-29T03:39:51;4.83;;;2.80;;
14484;SDS011;7328;50.812;4.422;2022-07-29T03:42:19;1.60;;;1.50;;
14484;SDS011;7328;50.812;4.422;2022-07-29T03:44:47;3.23;;;2.30;;
14484;SDS011;7328;50.812;4.422;2022-07-29T03:47:16;12.80;;;3.73;;
14484;SDS011;7328;50.812;4.422;2022-07-29T03:49:44;4.73;;;1.93;;
14484;SDS011;7328;50.812;4.422;2022-07-29T03:52:13;3.47;;;1.53;;
14484;SDS011;7328;50.812;4.422;2022-07-29T03:54:42;2.73;;;1.33;;
14484;SDS011;7328;50.812;4.422;2022-07-29T03:57:08;4.83;;;1.90;;
14484;SDS011;7328;50.812;4.422;2022-07-29T03:59:36;4.10;;;2.30;;
14484;SDS011;7328;50.812;4.422;2022-07-29T04:02:03;4.00;;;1.80;;
14484;SDS011;7328;50.812;4.422;2022-07-29T04:04:36;2.33;;;2.03;;
14484;SDS011;7328;50.812;4.422;2022-07-29T04:07:02;4.53;;;1.67;;
14484;SDS011;7328;50.812;4.422;2022-07-29T04:09:28;3.87;;;2.10;;
14484;SDS011;7328;50.812;4.422;2022-07-29T04:11:54;7.70;;;1.93;;
14484;SDS011;7328;50.812;4.422;2022-07-29T04:14:20;4.93;;;2.50;;
14484;SDS011;7328;50.812;4.422;2022-07-29T04:16:46;2.57;;;2.30;;
14484;SDS011;7328;50.812;4.422;2022-07-29T04:19:12;8.57;;;3.00;;
14484;SDS011;7328;50.812;4.422;2022-07-29T04:21:39;2.80;;;1.97;;
14484;SDS011;7328;50.812;4.422;2022-07-29T04:24:05;2.33;;;2.23;;
14484;SDS011;7328;50.812;4.422;2022-07-29T04:26:32;2.00;;;1.90;;
14484;SDS011;7328;50.812;4.422;2022-07-29T04:28:58;5.23;;;2.50;;
14484;SDS011;7328;50.812;4.422;2022-07-29T04:31:24;2.20;;;2.00;;
14484;SDS011;7328;50.812;4.422;2022-07-29T04:33:50;1.77;;;1.67;;
14484;SDS011;7328;50.812;4.422;2022-07-29T04:36:16;3.60;;;2.00;;
14484;SDS011;7328;50.812;4.422;2022-07-29T04:38:42;3.73;;;3.07;;
14484;SDS011;7328;50.812;4.422;2022-07-29T04:41:07;2.13;;;1.47;;
14484;SDS011;7328;50.812;4.422;2022-07-29T04:43:34;4.80;;;2.77;;
14484;SDS011;7328;50.812;4.422;2022-07-29T04:46:01;1.73;;;1.63;;
14484;SDS011;7328;50.812;4.422;2022-07-29T04:48:28;7.63;;;2.00;;
14484;SDS011;7328;50.812;4.422;2022-07-29T04:50:54;8.83;;;2.13;;
14484;SDS011;7328;50.812;4.422;2022-07-29T04:53:21;7.93;;;2.30;;
14484;SDS011;7328;50.812;4.422;2022-07-29T04:55:47;4.10;;;2.47;;
14484;SDS011;7328;50.812;4.422;2022-07-29T04:58:12;4.07;;;2.27;;
14484;SDS011;7328;50.812;4.422;2022-07-29T05:00:38;2.60;;;2.20;;
14484;SDS011;7328;50.812;4.422;2022-07-29T05:03:05;5.87;;;2.40;;
14484;SDS011;7328;50.812;4.422;2022-07-29T05:05:30;4.47;;;2.30;;
14484;SDS011;7328;50.812;4.422;2022-07-29T05:07:56;5.43;;;2.27;;
14484;SDS011;7328;50.812;4.422;2022-07-29T05:10:22;3.73;;;2.00;;
14484;SDS011;7328;50.812;4.422;2022-07-29T05:12:48;2.63;;;2.43;;
14484;SDS011;7328;50.812;4.422;2022-07-29T05:15:14;5.47;;;3.03;;
14484;SDS011;7328;50.812;4.422;2022-07-29T05:17:40;7.87;;;3.23;;
14484;SDS011;7328;50.812;4.422;2022-07-29T05:20:06;7.30;;;3.27;;
14484;SDS011;7328;50.812;4.422;2022-07-29T05:22:32;4.27;;;2.30;;
14484;SDS011;7328;50.812;4.422;2022-07-29T05:24:58;7.27;;;2.97;;
14484;SDS011;7328;50.812;4.422;2022-07-29T05:27:24;5.47;;;3.40;;
14484;SDS011;7328;50.812;4.422;2022-07-29T05:29:50;3.17;;;2.60;;
14484;SDS011;7328;50.812;4.422;2022-07-29T05:32:16;3.03;;;2.67;;
14484;SDS011;7328;50.812;4.422;2022-07-29T05:34:42;3.87;;;3.50;;
14484;SDS011;7328;50.812;4.422;2022-07-29T05:37:08;4.10;;;2.57;;
14484;SDS011;7328;50.812;4.422;2022-07-29T05:39:34;5.57;;;3.47;;
14484;SDS011;7328;50.812;4.422;2022-07-29T05:42:00;7.53;;;3.13;;
14484;SDS011;7328;50.812;4.422;2022-07-29T05:44:27;3.70;;;2.60;;
14484;SDS011;7328;50.812;4.422;2022-07-29T05:46:53;6.10;;;3.03;;
14484;SDS011;7328;50.812;4.422;2022-07-29T05:49:19;3.33;;;2.90;;
14484;SDS011;7328;50.812;4.422;2022-07-29T05:51:45;5.77;;;3.37;;
14484;SDS011;7328;50.812;4.422;2022-07-29T05:54:14;3.40;;;3.17;;
14484;SDS011;7328;50.812;4.422;2022-07-29T05:56:39;2.77;;;2.50;;
14484;SDS011;7328;50.812;4.422;2022-07-29T05:59:06;4.03;;;3.63;;
14484;SDS011;7328;50.812;4.422;2022-07-29T06:01:31;3.60;;;3.17;;
14484;SDS011;7328;50.812;4.422;2022-07-29T06:03:58;3.57;;;3.30;;
14484;SDS011;7328;50.812;4.422;2022-07-29T06:06:25;9.57;;;4.00;;
14484;SDS011;7328;50.812;4.422;2022-07-29T06:08:51;4.03;;;3.17;;
14484;SDS011;7328;50.812;4.422;2022-07-29T06:11:17;5.53;;;4.23;;
14484;SDS011;7328;50.812;4.422;2022-07-29T06:13:43;5.33;;;3.13;;
14484;SDS011;7328;50.812;4.422;2022-07-29T06:16:08;3.30;;;3.03;;
14484;SDS011;7328;50.812;4.422;2022-07-29T06:18:34;3.53;;;2.57;;
14484;SDS011;7328;50.812;4.422;2022-07-29T06:21:00;3.87;;;3.37;;
14484;SDS011;7328;50.812;4.422;2022-07-29T06:23:26;4.13;;;3.17;;
14484;SDS011;7328;50.812;4.422;2022-07-29T06:25:52;6.17;;;3.30;;
14484;SDS011;7328;50.812;4.422;2022-07-29T06:28:18;7.27;;;3.83;;
14484;SDS011;7328;50.812;4.422;2022-07-29T06:30:43;3.70;;;3.33;;
14484;SDS011;7328;50.812;4.422;2022-07-29T06:35:41;5.53;;;4.27;;
14484;SDS011;7328;50.812;4.422;2022-07-29T06:38:08;4.80;;;4.33;;
14484;SDS011;7328;50.812;4.422;2022-07-29T06:40:35;7.37;;;3.60;;
14484;SDS011;7328;50.812;4.422;2022-07-29T06:43:19;6.70;;;4.67;;
14484;SDS011;7328;50.812;4.422;2022-07-29T06:45:45;5.23;;;3.53;;
14484;SDS011;7328;50.812;4.422;2022-07-29T06:48:11;6.57;;;4.27;;
14484;SDS011;7328;50.812;4.422;2022-07-29T06:50:37;7.83;;;3.63;;
14484;SDS011;7328;50.812;4.422;2022-07-29T06:53:03;6.00;;;3.73;;
14484;SDS011;7328;50.812;4.422;2022-07-29T06:55:28;3.73;;;3.40;;
14484;SDS011;7328;50.812;4.422;2022-07-29T06:57:54;4.83;;;3.63;;
14484;SDS011;7328;50.812;4.422;2022-07-29T07:00:20;16.73;;;4.30;;
14484;SDS011;7328;50.812;4.422;2022-07-29T07:02:46;4.83;;;3.67;;
14484;SDS011;7328;50.812;4.422;2022-07-29T07:05:12;4.03;;;3.40;;
14484;SDS011;7328;50.812;4.422;2022-07-29T07:07:37;5.33;;;3.23;;
14484;SDS011;7328;50.812;4.422;2022-07-29T07:10:03;7.23;;;4.20;;
14484;SDS011;7328;50.812;4.422;2022-07-29T07:12:29;5.53;;;3.43;;
14484;SDS011;7328;50.812;4.422;2022-07-29T07:14:55;7.03;;;3.27;;
14484;SDS011;7328;50.812;4.422;2022-07-29T07:17:21;6.60;;;3.43;;
14484;SDS011;7328;50.812;4.422;2022-07-29T07:19:46;5.40;;;3.57;;
14484;SDS011;7328;50.812;4.422;2022-07-29T07:22:12;4.50;;;3.17;;
14484;SDS011;7328;50.812;4.422;2022-07-29T07:24:38;5.50;;;3.47;;
14484;SDS011;7328;50.812;4.422;2022-07-29T07:27:04;3.63;;;2.97;;
14484;SDS011;7328;50.812;4.422;2022-07-29T07:29:32;5.27;;;3.83;;
14484;SDS011;7328;50.812;4.422;2022-07-29T07:31:58;3.73;;;3.33;;
14484;SDS011;7328;50.812;4.422;2022-07-29T07:34:24;4.00;;;3.57;;
14484;SDS011;7328;50.812;4.422;2022-07-29T07:36:50;3.27;;;3.03;;
14484;SDS011;7328;50.812;4.422;2022-07-29T07:39:15;3.30;;;3.00;;
14484;SDS011;7328;50.812;4.422;2022-07-29T07:41:41;4.90;;;4.23;;
14484;SDS011;7328;50.812;4.422;2022-07-29T07:44:07;3.53;;;3.23;;
14484;SDS011;7328;50.812;4.422;2022-07-29T07:46:33;4.27;;;3.17;;
14484;SDS011;7328;50.812;4.422;2022-07-29T07:48:58;4.07;;;3.37;;
14484;SDS011;7328;50.812;4.422;2022-07-29T07:51:24;5.73;;;3.13;;
14484;SDS011;7328;50.812;4.422;2022-07-29T07:53:50;5.23;;;3.37;;
14484;SDS011;7328;50.812;4.422;2022-07-29T07:56:16;5.40;;;3.70;;
14484;SDS011;7328;50.812;4.422;2022-07-29T07:58:41;5.27;;;3.63;;
14484;SDS011;7328;50.812;4.422;2022-07-29T08:01:08;8.53;;;4.73;;
14484;SDS011;7328;50.812;4.422;2022-07-29T08:03:34;4.83;;;4.40;;
14484;SDS011;7328;50.812;4.422;2022-07-29T08:06:00;4.27;;;3.53;;
14484;SDS011;7328;50.812;4.422;2022-07-29T08:08:26;4.80;;;3.00;;
14484;SDS011;7328;50.812;4.422;2022-07-29T08:10:52;4.70;;;3.80;;
14484;SDS011;7328;50.812;4.422;2022-07-29T08:13:18;8.73;;;4.10;;
14484;SDS011;7328;50.812;4.422;2022-07-29T08:15:48;8.13;;;3.90;;
14484;SDS011;7328;50.812;4.422;2022-07-29T08:18:23;4.50;;;4.10;;
14484;SDS011;7328;50.812;4.422;2022-07-29T08:20:50;5.10;;;3.40;;
14484;SDS011;7328;50.812;4.422;2022-07-29T08:23:15;4.77;;;2.97;;
14484;SDS011;7328;50.812;4.422;2022-07-29T08:25:41;7.13;;;3.70;;
14484;SDS011;7328;50.812;4.422;2022-07-29T08:28:07;5.07;;;4.20;;
14484;SDS011;7328;50.812;4.422;2022-07-29T08:30:34;5.73;;;3.63;;
14484;SDS011;7328;50.812;4.422;2022-07-29T08:33:00;4.77;;;2.67;;
14484;SDS011;7328;50.812;4.422;2022-07-29T08:35:26;7.33;;;3.80;;
14484;SDS011;7328;50.812;4.422;2022-07-29T08:37:52;3.83;;;3.47;;
14484;SDS011;7328;50.812;4.422;2022-07-29T08:40:19;6.23;;;3.70;;
14484;SDS011;7328;50.812;4.422;2022-07-29T08:42:46;6.00;;;3.00;;
14484;SDS011;7328;50.812;4.422;2022-07-29T08:45:12;3.47;;;2.63;;
14484;SDS011;7328;50.812;4.422;2022-07-29T08:47:38;4.77;;;3.17;;
14484;SDS011;7328;50.812;4.422;2022-07-29T08:50:05;11.33;;;3.90;;
14484;SDS011;7328;50.812;4.422;2022-07-29T08:52:32;7.20;;;3.23;;
14484;SDS011;7328;50.812;4.422;2022-07-29T08:58:24;4.50;;;2.50;;
14484;SDS011;7328;50.812;4.422;2022-07-29T09:00:52;2.60;;;2.43;;
14484;SDS011;7328;50.812;4.422;2022-07-29T09:03:20;3.30;;;2.80;;
14484;SDS011;7328;50.812;4.422;2022-07-29T09:05:49;4.33;;;3.07;;
14484;SDS011;7328;50.812;4.422;2022-07-29T09:08:16;1.87;;;1.77;;
14484;SDS011;7328;50.812;4.422;2022-07-29T09:10:45;2.93;;;1.93;;
14484;SDS011;7328;50.812;4.422;2022-07-29T09:13:11;3.33;;;1.97;;
14484;SDS011;7328;50.812;4.422;2022-07-29T09:15:37;2.93;;;2.33;;
14484;SDS011;7328;50.812;4.422;2022-07-29T09:18:02;4.30;;;2.33;;
14484;SDS011;7328;50.812;4.422;2022-07-29T09:20:28;2.67;;;1.77;;
14484;SDS011;7328;50.812;4.422;2022-07-29T09:23:15;1.97;;;1.70;;
14484;SDS011;7328;50.812;4.422;2022-07-29T09:25:41;4.13;;;1.80;;
14484;SDS011;7328;50.812;4.422;2022-07-29T09:28:11;3.77;;;1.80;;
14484;SDS011;7328;50.812;4.422;2022-07-29T09:30:54;4.40;;;1.97;;
14484;SDS011;7328;50.812;4.422;2022-07-29T09:33:23;1.90;;;1.80;;
14484;SDS011;7328;50.812;4.422;2022-07-29T09:36:03;4.20;;;1.77;;
14484;SDS011;7328;50.812;4.422;2022-07-29T09:38:30;1.50;;;1.40;;
14484;SDS011;7328;50.812;4.422;2022-07-29T09:40:56;2.53;;;2.30;;
14484;SDS011;7328;50.812;4.422;2022-07-29T09:43:23;1.70;;;1.60;;
14484;SDS011;7328;50.812;4.422;2022-07-29T09:45:49;3.17;;;1.40;;
14484;SDS011;7328;50.812;4.422;2022-07-29T09:48:15;4.13;;;1.93;;
14484;SDS011;7328;50.812;4.422;2022-07-29T09:50:46;3.53;;;1.10;;
14484;SDS011;7328;50.812;4.422;2022-07-29T09:53:31;4.43;;;1.97;;
14484;SDS011;7328;50.812;4.422;2022-07-29T09:55:58;5.33;;;2.20;;
14484;SDS011;7328;50.812;4.422;2022-07-29T09:58:23;2.40;;;1.27;;
14484;SDS011;7328;50.812;4.422;2022-07-29T10:00:50;5.87;;;3.33;;
14484;SDS011;7328;50.812;4.422;2022-07-29T10:03:17;6.33;;;3.83;;
14484;SDS011;7328;50.812;4.422;2022-07-29T10:05:43;2.70;;;2.50;;
14484;SDS011;7328;50.812;4.422;2022-07-29T10:08:11;3.63;;;2.90;;
14484;SDS011;7328;50.812;4.422;2022-07-29T10:10:39;1.63;;;1.33;;
14484;SDS011;7328;50.812;4.422;2022-07-29T10:13:12;5.60;;;2.20;;
14484;SDS011;7328;50.812;4.422;2022-07-29T10:15:40;4.77;;;1.97;;
14484;SDS011;7328;50.812;4.422;2022-07-29T10:18:09;5.23;;;3.23;;
14484;SDS011;7328;50.812;4.422;2022-07-29T10:20:37;2.60;;;2.40;;
14484;SDS011;7328;50.812;4.422;2022-07-29T10:23:03;3.50;;;3.20;;
14484;SDS011;7328;50.812;4.422;2022-07-29T10:25:30;2.07;;;1.80;;
14484;SDS011;7328;50.812;4.422;2022-07-29T10:27:56;8.50;;;2.63;;
14484;SDS011;7328;50.812;4.422;2022-07-29T10:30:23;5.00;;;2.40;;
14484;SDS011;7328;50.812;4.422;2022-07-29T10:44:04;2.37;;;2.17;;
14484;SDS011;7328;50.812;4.422;2022-07-29T10:46:38;2.10;;;1.90;;
14484;SDS011;7328;50.812;4.422;2022-07-29T10:51:54;2.97;;;2.33;;
14484;SDS011;7328;50.812;4.422;2022-07-29T10:57:20;4.63;;;2.10;;
14484;SDS011;7328;50.812;4.422;2022-07-29T11:05:16;2.97;;;2.40;;
14484;SDS011;7328;50.812;4.422;2022-07-29T11:10:38;7.77;;;2.53;;
14484;SDS011;7328;50.812;4.422;2022-07-29T11:13:04;4.37;;;1.60;;
14484;SDS011;7328;50.812;4.422;2022-07-29T11:15:32;1.67;;;1.57;;
14484;SDS011;7328;50.812;4.422;2022-07-29T11:18:22;2.50;;;1.77;;
14484;SDS011;7328;50.812;4.422;2022-07-29T11:20:49;6.50;;;2.10;;
14484;SDS011;7328;50.812;4.422;2022-07-29T11:23:24;5.53;;;1.77;;
14484;SDS011;7328;50.812;4.422;2022-07-29T11:28:49;3.13;;;1.43;;
14484;SDS011;7328;50.812;4.422;2022-07-29T11:31:16;4.63;;;1.83;;
14484;SDS011;7328;50.812;4.422;2022-07-29T11:33:44;2.83;;;1.83;;
14484;SDS011;7328;50.812;4.422;2022-07-29T11:36:11;4.30;;;2.10;;
14484;SDS011;7328;50.812;4.422;2022-07-29T11:38:38;1.87;;;1.77;;
14484;SDS011;7328;50.812;4.422;2022-07-29T11:41:23;3.57;;;1.87;;
14484;SDS011;7328;50.812;4.422;2022-07-29T11:43:50;4.47;;;2.77;;
14484;SDS011;7328;50.812;4.422;2022-07-29T11:49:07;7.73;;;2.50;;
14484;SDS011;7328;50.812;4.422;2022-07-29T11:51:38;2.13;;;1.97;;
14484;SDS011;7328;50.812;4.422;2022-07-29T11:54:04;2.83;;;2.20;;
14484;SDS011;7328;50.812;4.422;2022-07-29T11:56:34;3.90;;;1.97;;
14484;SDS011;7328;50.812;4.422;2022-07-29T11:59:08;6.77;;;2.80;;
14484;SDS011;7328;50.812;4.422;2022-07-29T12:01:35;3.83;;;1.90;;
14484;SDS011;7328;50.812;4.422;2022-07-29T12:04:04;3.70;;;2.97;;
14484;SDS011;7328;50.812;4.422;2022-07-29T12:06:32;4.73;;;3.00;;
14484;SDS011;7328;50.812;4.422;2022-07-29T12:08:58;9.10;;;2.30;;
14484;SDS011;7328;50.812;4.422;2022-07-29T12:11:25;2.70;;;2.33;;
14484;SDS011;7328;50.812;4.422;2022-07-29T12:13:51;3.60;;;2.50;;
14484;SDS011;7328;50.812;4.422;2022-07-29T12:16:18;3.77;;;2.60;;
14484;SDS011;7328;50.812;4.422;2022-07-29T12:19:00;7.70;;;2.63;;
14484;SDS011;7328;50.812;4.422;2022-07-29T12:21:28;3.73;;;2.07;;
14484;SDS011;7328;50.812;4.422;2022-07-29T12:23:54;3.80;;;2.30;;
14484;SDS011;7328;50.812;4.422;2022-07-29T12:26:21;5.00;;;2.67;;
14484;SDS011;7328;50.812;4.422;2022-07-29T12:28:47;3.83;;;3.17;;
14484;SDS011;7328;50.812;4.422;2022-07-29T12:31:14;4.40;;;2.95;;
14484;SDS011;7328;50.812;4.422;2022-07-29T12:33:40;5.10;;;3.30;;
14484;SDS011;7328;50.812;4.422;2022-07-29T12:36:07;6.25;;;3.10;;
14484;SDS011;7328;50.812;4.422;2022-07-29T12:38:33;5.13;;;4.00;;
14484;SDS011;7328;50.812;4.422;2022-07-29T12:41:00;4.75;;;2.53;;
14484;SDS011;7328;50.812;4.422;2022-07-29T12:43:28;2.60;;;2.40;;
14484;SDS011;7328;50.812;4.422;2022-07-29T12:45:55;2.28;;;1.83;;
14484;SDS011;7328;50.812;4.422;2022-07-29T12:48:41;2.67;;;2.47;;
14484;SDS011;7328;50.812;4.422;2022-07-29T12:51:09;4.07;;;2.35;;
14484;SDS011;7328;50.812;4.422;2022-07-29T12:53:36;12.90;;;2.78;;
14484;SDS011;7328;50.812;4.422;2022-07-29T12:56:03;4.22;;;2.45;;
14484;SDS011;7328;50.812;4.422;2022-07-29T12:58:40;3.45;;;2.47;;
14484;SDS011;7328;50.812;4.422;2022-07-29T13:01:08;3.47;;;2.25;;
14484;SDS011;7328;50.812;4.422;2022-07-29T13:03:43;3.05;;;2.28;;
14484;SDS011;7328;50.812;4.422;2022-07-29T13:09:14;3.20;;;2.40;;
14484;SDS011;7328;50.812;4.422;2022-07-29T13:11:45;4.30;;;2.28;;
14484;SDS011;7328;50.812;4.422;2022-07-29T13:14:29;2.75;;;1.98;;
14484;SDS011;7328;50.812;4.422;2022-07-29T13:19:39;8.13;;;3.42;;
14484;SDS011;7328;50.812;4.422;2022-07-29T13:22:15;4.25;;;2.58;;
14484;SDS011;7328;50.812;4.422;2022-07-29T13:24:50;3.35;;;2.55;;
14484;SDS011;7328;50.812;4.422;2022-07-29T13:27:21;7.78;;;3.17;;
14484;SDS011;7328;50.812;4.422;2022-07-29T13:29:48;3.47;;;3.13;;
14484;SDS011;7328;50.812;4.422;2022-07-29T13:32:18;6.68;;;2.95;;
14484;SDS011;7328;50.812;4.422;2022-07-29T13:34:44;14.07;;;4.70;;
14484;SDS011;7328;50.812;4.422;2022-07-29T13:37:10;5.80;;;2.63;;
14484;SDS011;7328;50.812;4.422;2022-07-29T13:39:36;2.78;;;1.90;;
14484;SDS011;7328;50.812;4.422;2022-07-29T13:42:03;4.68;;;1.70;;
14484;SDS011;7328;50.812;4.422;2022-07-29T13:44:31;3.22;;;1.50;;
14484;SDS011;7328;50.812;4.422;2022-07-29T13:46:56;4.05;;;1.98;;
14484;SDS011;7328;50.812;4.422;2022-07-29T13:49:24;7.70;;;1.80;;
14484;SDS011;7328;50.812;4.422;2022-07-29T13:51:50;2.72;;;2.03;;
14484;SDS011;7328;50.812;4.422;2022-07-29T13:54:16;6.80;;;2.13;;
14484;SDS011;7328;50.812;4.422;2022-07-29T13:56:41;7.70;;;2.28;;
14484;SDS011;7328;50.812;4.422;2022-07-29T13:59:07;2.63;;;2.13;;
14484;SDS011;7328;50.812;4.422;2022-07-29T14:01:36;2.85;;;2.15;;
14484;SDS011;7328;50.812;4.422;2022-07-29T14:04:02;2.22;;;1.23;;
14484;SDS011;7328;50.812;4.422;2022-07-29T14:06:28;2.15;;;1.38;;
14484;SDS011;7328;50.812;4.422;2022-07-29T14:08:54;2.30;;;1.50;;
14484;SDS011;7328;50.812;4.422;2022-07-29T14:11:20;4.80;;;1.83;;
14484;SDS011;7328;50.812;4.422;2022-07-29T14:13:46;4.13;;;1.83;;
14484;SDS011;7328;50.812;4.422;2022-07-29T14:16:12;5.07;;;2.08;;
14484;SDS011;7328;50.812;4.422;2022-07-29T14:18:37;3.47;;;1.92;;
14484;SDS011;7328;50.812;4.422;2022-07-29T14:21:03;4.07;;;2.15;;
14484;SDS011;7328;50.812;4.422;2022-07-29T14:23:29;4.47;;;2.10;;
14484;SDS011;7328;50.812;4.422;2022-07-29T14:25:55;4.70;;;2.17;;
14484;SDS011;7328;50.812;4.422;2022-07-29T14:28:21;2.78;;;2.58;;
14484;SDS011;7328;50.812;4.422;2022-07-29T14:30:46;3.15;;;1.70;;
14484;SDS011;7328;50.812;4.422;2022-07-29T14:33:12;3.50;;;1.85;;
14484;SDS011;7328;50.812;4.422;2022-07-29T14:35:38;2.03;;;1.83;;
14484;SDS011;7328;50.812;4.422;2022-07-29T14:38:04;4.03;;;1.77;;
14484;SDS011;7328;50.812;4.422;2022-07-29T14:40:30;2.10;;;1.65;;
14484;SDS011;7328;50.812;4.422;2022-07-29T14:42:55;1.60;;;1.50;;
14484;SDS011;7328;50.812;4.422;2022-07-29T14:45:21;1.83;;;1.73;;
14484;SDS011;7328;50.812;4.422;2022-07-29T14:47:47;1.98;;;1.25;;
14484;SDS011;7328;50.812;4.422;2022-07-29T14:50:15;3.40;;;1.55;;
14484;SDS011;7328;50.812;4.422;2022-07-29T14:52:41;1.85;;;1.60;;
14484;SDS011;7328;50.812;4.422;2022-07-29T14:55:07;3.38;;;1.50;;
14484;SDS011;7328;50.812;4.422;2022-07-29T14:57:34;1.63;;;1.50;;
14484;SDS011;7328;50.812;4.422;2022-07-29T14:59:59;2.97;;;1.58;;
14484;SDS011;7328;50.812;4.422;2022-07-29T15:02:26;1.77;;;1.58;;
14484;SDS011;7328;50.812;4.422;2022-07-29T15:04:51;2.72;;;2.00;;
14484;SDS011;7328;50.812;4.422;2022-07-29T15:07:17;2.55;;;1.67;;
14484;SDS011;7328;50.812;4.422;2022-07-29T15:09:43;2.67;;;1.63;;
14484;SDS011;7328;50.812;4.422;2022-07-29T15:12:10;2.22;;;1.70;;
14484;SDS011;7328;50.812;4.422;2022-07-29T15:14:36;1.90;;;1.50;;
14484;SDS011;7328;50.812;4.422;2022-07-29T15:17:02;2.30;;;2.17;;
14484;SDS011;7328;50.812;4.422;2022-07-29T15:19:28;4.15;;;2.35;;
14484;SDS011;7328;50.812;4.422;2022-07-29T15:21:54;2.15;;;1.50;;
14484;SDS011;7328;50.812;4.422;2022-07-29T15:24:20;3.10;;;1.30;;
14484;SDS011;7328;50.812;4.422;2022-07-29T15:26:46;4.65;;;1.70;;
14484;SDS011;7328;50.812;4.422;2022-07-29T15:29:12;3.70;;;2.58;;
14484;SDS011;7328;50.812;4.422;2022-07-29T15:31:40;6.25;;;3.60;;
14484;SDS011;7328;50.812;4.422;2022-07-29T15:34:06;4.70;;;2.40;;
14484;SDS011;7328;50.812;4.422;2022-07-29T15:36:32;4.47;;;1.80;;
14484;SDS011;7328;50.812;4.422;2022-07-29T15:38:57;2.60;;;1.75;;
14484;SDS011;7328;50.812;4.422;2022-07-29T15:41:23;2.40;;;1.80;;
14484;SDS011;7328;50.812;4.422;2022-07-29T15:43:49;5.43;;;3.00;;
14484;SDS011;7328;50.812;4.422;2022-07-29T15:46:17;4.60;;;2.13;;
14484;SDS011;7328;50.812;4.422;2022-07-29T15:49:03;4.40;;;1.95;;
14484;SDS011;7328;50.812;4.422;2022-07-29T15:51:30;2.58;;;1.77;;
14484;SDS011;7328;50.812;4.422;2022-07-29T15:53:56;2.90;;;2.33;;
14484;SDS011;7328;50.812;4.422;2022-07-29T15:56:22;3.88;;;2.05;;
14484;SDS011;7328;50.812;4.422;2022-07-29T15:58:49;8.38;;;2.65;;
14484;SDS011;7328;50.812;4.422;2022-07-29T16:01:15;4.35;;;2.00;;
14484;SDS011;7328;50.812;4.422;2022-07-29T16:03:41;4.38;;;2.25;;
14484;SDS011;7328;50.812;4.422;2022-07-29T16:06:08;5.38;;;1.98;;
14484;SDS011;7328;50.812;4.422;2022-07-29T16:08:34;4.72;;;1.90;;
14484;SDS011;7328;50.812;4.422;2022-07-29T16:10:59;2.15;;;2.05;;
14484;SDS011;7328;50.812;4.422;2022-07-29T16:13:25;5.97;;;2.35;;